createdAt,value
2018-11-26T00:01:21.549Z,56.50
2018-11-26T00:11:30.924Z,56.40
2018-11-26T00:21:35.174Z,56.50
2018-11-26T00:31:39.386Z,56.30
2018-11-26T00:41:43.497Z,56.30
2018-11-26T00:51:47.616Z,56.20
2018-11-26T01:01:51.819Z,55.70
2018-11-26T01:11:56.028Z,56.20
2018-11-26T01:22:00.125Z,55.80
2018-11-26T01:32:04.308Z,55.80
2018-11-26T01:42:08.574Z,55.40
2018-11-26T01:52:12.705Z,55.50
2018-11-26T02:02:16.876Z,55.20
2018-11-26T02:12:21.006Z,55.80
2018-11-26T02:22:25.170Z,55.70
2018-11-26T02:32:29.352Z,55.70
2018-11-26T02:42:33.646Z,55.20
2018-11-26T02:52:37.780Z,55.60
2018-11-26T03:02:41.930Z,55.50
2018-11-26T03:12:46.086Z,55.40
2018-11-26T03:22:50.172Z,55.50
2018-11-26T03:32:54.336Z,55.50
2018-11-26T03:42:58.476Z,55.20
2018-11-26T03:53:02.568Z,55.10
2018-11-26T04:03:06.736Z,54.80
2018-11-26T04:13:10.836Z,54.90
2018-11-26T04:23:14.992Z,55.10
2018-11-26T04:33:19.088Z,55.20
2018-11-26T04:43:23.289Z,55.10
2018-11-26T04:53:27.388Z,55.20
2018-11-26T05:03:31.677Z,55.20
2018-11-26T05:13:35.813Z,55.10
2018-11-26T05:23:40.167Z,55.00
2018-11-26T05:33:44.391Z,54.90
2018-11-26T05:43:48.579Z,54.80
2018-11-26T05:53:52.817Z,55.00
2018-11-26T06:03:56.946Z,54.70
2018-11-26T06:14:01.537Z,54.30
2018-11-26T06:24:05.951Z,54.30
2018-11-26T06:34:10.104Z,54.60
2018-11-26T06:44:14.297Z,54.00
2018-11-26T06:54:18.439Z,54.90
2018-11-26T07:04:22.584Z,54.80
2018-11-26T07:14:26.773Z,54.20
2018-11-26T07:24:30.889Z,54.40
2018-11-26T07:34:35.162Z,53.70
2018-11-26T07:44:39.431Z,53.40
2018-11-26T07:54:43.554Z,53.30
2018-11-26T08:04:47.746Z,53.90
2018-11-26T08:14:51.857Z,54.00
2018-11-26T08:24:56.160Z,53.70
2018-11-26T08:35:00.335Z,55.10
2018-11-26T08:45:06.379Z,56.70
2018-11-26T08:55:10.651Z,57.70
2018-11-26T09:05:23.907Z,57.70
2018-11-26T09:15:24.195Z,58.00
2018-11-26T09:25:28.481Z,57.30
2018-11-26T09:35:32.678Z,56.60
2018-11-26T09:45:40.431Z,56.50
2018-11-26T09:55:41.477Z,56.10
2018-11-26T10:05:45.679Z,56.30
2018-11-26T10:15:49.890Z,56.20
2018-11-26T10:25:54.003Z,55.90
2018-11-26T10:35:58.449Z,56.40
2018-11-26T10:46:02.684Z,55.70
2018-11-26T10:56:07.194Z,56.20
2018-11-26T11:06:11.315Z,56.30
2018-11-26T11:16:15.665Z,56.60
2018-11-26T11:26:19.998Z,56.30
2018-11-26T11:36:24.493Z,56.50
2018-11-26T11:46:28.608Z,56.10
2018-11-26T11:56:32.784Z,56.40
2018-11-26T12:06:36.991Z,56.10
2018-11-26T12:16:41.198Z,56.50
2018-11-26T12:26:45.377Z,56.50
2018-11-26T12:36:49.509Z,56.50
2018-11-26T12:46:53.771Z,56.00
2018-11-26T12:56:57.998Z,55.00
2018-11-26T13:07:02.335Z,55.10
2018-11-26T13:17:06.879Z,54.50
2018-11-26T13:27:11.081Z,54.90
2018-11-26T13:37:15.190Z,54.50
2018-11-26T13:47:19.454Z,55.10
2018-11-26T13:57:23.716Z,55.30
2018-11-26T14:07:28.132Z,54.30
2018-11-26T14:17:32.254Z,53.90
2018-11-26T14:27:36.510Z,53.90
2018-11-26T14:37:40.854Z,54.50
2018-11-26T14:47:45.518Z,54.00
2018-11-26T14:57:50.449Z,53.60
2018-11-26T15:07:54.605Z,54.20
2018-11-26T15:17:58.959Z,54.60
2018-11-26T15:28:08.469Z,54.20
2018-11-26T15:38:12.905Z,54.10
2018-11-26T15:48:17.037Z,54.20
2018-11-26T15:58:23.666Z,54.50
2018-11-26T16:08:25.887Z,54.30
2018-11-26T16:18:30.332Z,54.50
2018-11-26T16:28:34.599Z,54.80
2018-11-26T16:38:39.046Z,55.70
2018-11-26T16:48:43.778Z,56.30
2018-11-26T16:58:48.086Z,55.90
2018-11-26T17:08:52.411Z,56.00
2018-11-26T17:18:56.581Z,55.20
2018-11-26T17:29:00.872Z,54.70
2018-11-26T17:39:08.066Z,54.70
2018-11-26T17:49:12.152Z,54.70
2018-11-26T17:59:16.492Z,55.10
2018-11-26T18:09:22.795Z,54.90
2018-11-26T18:19:24.884Z,54.70
2018-11-26T18:29:29.190Z,54.80
2018-11-26T18:39:33.460Z,54.30
2018-11-26T18:49:38.423Z,54.40
2018-11-26T18:59:42.726Z,56.10
2018-11-26T19:09:46.954Z,55.50
2018-11-26T19:19:51.242Z,55.60
2018-11-26T19:29:55.507Z,55.80
2018-11-26T19:40:00.155Z,57.10
2018-11-26T19:50:04.417Z,57.50
2018-11-26T20:00:12.431Z,57.30
2018-11-26T20:10:16.562Z,56.00
2018-11-26T20:20:20.764Z,55.50
2018-11-26T20:30:24.951Z,55.80
2018-11-26T20:40:29.447Z,55.70
2018-11-26T20:50:33.609Z,56.70
2018-11-26T21:00:37.943Z,59.70
2018-11-26T21:10:42.133Z,63.00
2018-11-26T21:20:48.389Z,64.90
2018-11-26T21:30:52.751Z,64.90
2018-11-26T21:40:56.870Z,65.30
2018-11-26T21:51:00.957Z,65.40
2018-11-26T22:01:07.877Z,66.00
2018-11-26T22:11:12.075Z,70.10
2018-11-26T22:21:16.283Z,69.40
2018-11-26T22:31:20.509Z,69.90
2018-11-26T22:41:24.650Z,71.50
2018-11-26T22:51:28.832Z,72.70
2018-11-26T23:01:32.994Z,73.20
2018-11-26T23:11:37.270Z,73.90
2018-11-26T23:21:41.429Z,73.80
2018-11-26T23:31:45.516Z,74.00
2018-11-26T23:41:49.789Z,73.90
2018-11-26T23:51:53.977Z,74.30
